createdAt,value
2022-08-14T00:01:13.311Z,101482.13
2022-08-14T00:03:40.731Z,101467.06
2022-08-14T00:06:25.454Z,101466.16
2022-08-14T00:08:55.531Z,101468.06
2022-08-14T00:11:25.734Z,101458.41
2022-08-14T00:13:55.154Z,101454.03
2022-08-14T00:16:41.041Z,101456.00
2022-08-14T00:19:19.508Z,101456.09
2022-08-14T00:21:47.122Z,101450.97
2022-08-14T00:24:13.586Z,101452.88
2022-08-14T00:26:49.770Z,101449.41
2022-08-14T00:29:21.210Z,101449.56
2022-08-14T00:31:55.261Z,101454.06
2022-08-14T00:34:37.188Z,101450.63
2022-08-14T00:37:09.082Z,101450.69
2022-08-14T00:39:35.431Z,101443.63
2022-08-14T00:42:02.291Z,101444.59
2022-08-14T00:44:32.970Z,101449.16
2022-08-14T00:47:03.459Z,101436.81
2022-08-14T00:49:31.018Z,101436.88
2022-08-14T00:52:09.702Z,101434.31
2022-08-14T00:54:41.495Z,101429.13
2022-08-14T00:57:07.862Z,101425.66
2022-08-14T00:59:35.712Z,101424.84
2022-08-14T01:02:02.427Z,101416.03
2022-08-14T01:04:38.001Z,101411.69
2022-08-14T01:07:21.726Z,101413.53
2022-08-14T01:09:52.369Z,101409.94
2022-08-14T01:12:27.019Z,101415.19
2022-08-14T01:14:58.258Z,101405.28
2022-08-14T01:17:45.964Z,101404.25
2022-08-14T01:20:35.335Z,101406.03
2022-08-14T01:23:08.838Z,101401.59
2022-08-14T01:25:38.148Z,101403.41
2022-08-14T01:28:06.279Z,101404.28
2022-08-14T01:30:39.924Z,101404.25
2022-08-14T01:33:06.859Z,101390.91
2022-08-14T01:36:03.016Z,101402.53
2022-08-14T01:38:20.984Z,101392.81
2022-08-14T01:40:48.410Z,101400.94
2022-08-14T01:43:18.627Z,101402.81
2022-08-14T01:45:57.686Z,101400.25
2022-08-14T01:48:33.439Z,101409.25
2022-08-14T01:51:03.975Z,101403.13
2022-08-14T01:53:33.453Z,101397.84
2022-08-14T01:56:04.492Z,101389.94
2022-08-14T01:58:38.609Z,101394.53
2022-08-14T02:01:26.571Z,101392.03
2022-08-14T02:03:57.164Z,101384.97
2022-08-14T02:06:33.401Z,101382.31
2022-08-14T02:09:02.352Z,101387.75
2022-08-14T02:11:31.039Z,101382.44
2022-08-14T02:14:07.374Z,101384.34
2022-08-14T02:16:39.455Z,101384.25
2022-08-14T02:19:08.083Z,101373.50
2022-08-14T02:21:43.263Z,101373.50
2022-08-14T02:24:39.523Z,101366.41
2022-08-14T02:28:22.589Z,101367.25
2022-08-14T02:29:59.077Z,101369.94
2022-08-14T02:32:35.736Z,101369.91
2022-08-14T02:35:06.722Z,101381.28
2022-08-14T02:37:47.115Z,101362.50
2022-08-14T02:40:15.633Z,101363.16
2022-08-14T02:42:42.793Z,101360.44
2022-08-14T02:45:21.979Z,101363.19
2022-08-14T02:47:49.216Z,101356.13
2022-08-14T02:50:21.198Z,101357.13
2022-08-14T02:52:57.397Z,101353.56
2022-08-14T02:55:30.838Z,101361.63
2022-08-14T02:57:57.979Z,101355.53
2022-08-14T03:00:30.086Z,101352.88
2022-08-14T03:02:58.863Z,101345.00
2022-08-14T03:05:35.945Z,101341.41
2022-08-14T03:08:09.866Z,101345.06
2022-08-14T03:10:41.811Z,101342.50
2022-08-14T03:13:19.571Z,101330.09
2022-08-14T03:15:55.846Z,101328.38
2022-08-14T03:18:32.017Z,101324.03
2022-08-14T03:21:03.717Z,101321.50
2022-08-14T03:23:37.681Z,101325.16
2022-08-14T03:26:05.351Z,101323.41
2022-08-14T03:28:33.168Z,101317.16
2022-08-14T03:31:00.206Z,101314.50
2022-08-14T03:33:27.830Z,101313.72
2022-08-14T03:36:00.261Z,101317.31
2022-08-14T03:39:14.627Z,101319.19
2022-08-14T03:41:23.287Z,101311.31
2022-08-14T03:43:57.402Z,101311.41
2022-08-14T03:46:52.216Z,101307.03
2022-08-14T03:49:24.244Z,101308.91
2022-08-14T03:51:55.519Z,101303.59
2022-08-14T03:54:24.433Z,101302.78
2022-08-14T03:56:50.746Z,101307.28
2022-08-14T03:59:19.263Z,101304.69
2022-08-14T04:01:58.075Z,101310.06
2022-08-14T04:04:28.629Z,101306.47
2022-08-14T04:06:58.906Z,101307.28
2022-08-14T04:09:26.816Z,101304.63
2022-08-14T04:11:53.839Z,101309.13
2022-08-14T04:14:20.298Z,101304.69
2022-08-14T04:16:47.354Z,101307.38
2022-08-14T04:19:17.354Z,101314.47
2022-08-14T04:22:02.925Z,101298.44
2022-08-14T04:24:30.758Z,101294.84
2022-08-14T04:27:04.147Z,101295.75
2022-08-14T04:29:30.551Z,101304.69
2022-08-14T04:33:01.417Z,101311.66
2022-08-14T04:34:52.032Z,101308.81
2022-08-14T04:37:43.097Z,101299.78
2022-08-14T04:40:29.861Z,101294.31
2022-08-14T04:43:17.386Z,101289.81
2022-08-14T04:45:44.316Z,101295.06
2022-08-14T04:48:39.573Z,101286.03
2022-08-14T04:51:02.011Z,101285.97
2022-08-14T04:53:35.522Z,101280.53
2022-08-14T04:56:03.356Z,101282.38
2022-08-14T04:58:34.181Z,101286.69
2022-08-14T05:01:01.343Z,101283.09
2022-08-14T05:03:29.190Z,101283.88
2022-08-14T05:05:56.723Z,101282.81
2022-08-14T05:08:32.278Z,101276.44
2022-08-14T05:11:13.250Z,101278.00
2022-08-14T05:14:08.272Z,101280.59
2022-08-14T05:16:29.235Z,101283.84
2022-08-14T05:19:25.066Z,101282.72
2022-08-14T05:21:59.823Z,101277.16
2022-08-14T05:24:28.212Z,101268.84
2022-08-14T05:26:54.716Z,101265.03
2022-08-14T05:29:21.756Z,101264.69
2022-08-14T05:31:48.794Z,101257.16
2022-08-14T05:34:17.013Z,101259.44
2022-08-14T05:36:50.510Z,101262.59
2022-08-14T05:39:25.354Z,101259.38
2022-08-14T05:41:53.972Z,101257.19
2022-08-14T05:44:20.842Z,101257.56
2022-08-14T05:46:47.238Z,101249.91
2022-08-14T05:49:14.315Z,101255.72
2022-08-14T05:51:41.189Z,101256.78
2022-08-14T05:54:12.757Z,101239.34
2022-08-14T05:56:52.937Z,101247.75
2022-08-14T05:59:19.343Z,101248.13
2022-08-14T06:01:46.036Z,101241.19
2022-08-14T06:04:13.087Z,101235.03
2022-08-14T06:06:42.103Z,101221.16
2022-08-14T06:09:10.479Z,101233.03
2022-08-14T06:11:36.841Z,101232.50
2022-08-14T06:14:03.586Z,101226.38
2022-08-14T06:16:30.015Z,101236.81
2022-08-14T06:19:00.139Z,101235.41
2022-08-14T06:21:26.989Z,101244.75
2022-08-14T06:23:53.625Z,101239.81
2022-08-14T06:26:20.758Z,101243.00
2022-08-14T06:28:52.487Z,101234.28
2022-08-14T06:31:19.288Z,101233.28
2022-08-14T06:35:10.185Z,101223.94
2022-08-14T06:36:33.234Z,101230.50
2022-08-14T06:39:00.058Z,101227.56
2022-08-14T06:41:52.671Z,101224.25
2022-08-14T06:44:12.673Z,101223.63
2022-08-14T06:46:38.988Z,101221.66
2022-08-14T06:49:05.424Z,101219.53
2022-08-14T06:51:38.464Z,101216.84
2022-08-14T06:54:10.828Z,101210.53
2022-08-14T06:56:38.626Z,101210.38
2022-08-14T06:59:05.496Z,101209.34
2022-08-14T07:01:51.313Z,101210.81
2022-08-14T07:04:41.795Z,101209.41
2022-08-14T07:07:08.119Z,101211.97
2022-08-14T07:09:44.247Z,101220.56
2022-08-14T07:12:56.051Z,101209.72
2022-08-14T07:15:05.675Z,101205.88
2022-08-14T07:17:34.364Z,101199.91
2022-08-14T07:20:02.978Z,101206.78
2022-08-14T07:22:33.109Z,101205.75
2022-08-14T07:25:15.886Z,101199.34
2022-08-14T07:27:43.085Z,101202.34
2022-08-14T07:30:09.859Z,101196.88
2022-08-14T07:32:56.169Z,101205.38
2022-08-14T07:35:22.582Z,101197.19
2022-08-14T07:37:50.033Z,101192.59
2022-08-14T07:40:22.224Z,101185.28
2022-08-14T07:42:54.514Z,101180.56
2022-08-14T07:45:20.807Z,101190.06
2022-08-14T07:47:48.751Z,101185.22
2022-08-14T07:50:16.633Z,101188.91
2022-08-14T07:52:47.518Z,101185.69
2022-08-14T07:55:15.444Z,101178.88
2022-08-14T07:57:48.114Z,101170.69
2022-08-14T08:00:29.886Z,101180.75
2022-08-14T08:03:00.243Z,101173.53
2022-08-14T08:05:27.879Z,101177.53
2022-08-14T08:07:54.560Z,101173.78
2022-08-14T08:10:46.900Z,101171.28
2022-08-14T08:13:18.690Z,101172.94
2022-08-14T08:15:53.822Z,101170.38
2022-08-14T08:18:27.543Z,101161.66
2022-08-14T08:20:59.243Z,101156.63
2022-08-14T08:23:34.586Z,101163.28
2022-08-14T08:26:07.808Z,101167.59
2022-08-14T08:28:34.632Z,101168.66
2022-08-14T08:31:04.100Z,101167.13
2022-08-14T08:33:37.054Z,101173.59
2022-08-14T08:36:05.942Z,101166.03
2022-08-14T08:39:18.457Z,101163.97
2022-08-14T08:41:21.059Z,101157.19
2022-08-14T08:43:47.922Z,101163.75
2022-08-14T08:46:21.524Z,101167.53
2022-08-14T08:51:34.705Z,101153.56
2022-08-14T08:54:18.382Z,101159.41
2022-08-14T08:56:51.890Z,101150.22
2022-08-14T08:59:30.937Z,101142.59
2022-08-14T09:01:58.858Z,101146.56
2022-08-14T09:04:29.953Z,101145.28
2022-08-14T09:07:09.298Z,101136.94
2022-08-14T09:09:54.707Z,101138.94
2022-08-14T09:12:26.846Z,101140.75
2022-08-14T09:14:53.888Z,101138.88
2022-08-14T09:17:20.222Z,101133.06
2022-08-14T09:19:52.290Z,101132.91
2022-08-14T09:22:34.844Z,101137.41
2022-08-14T09:25:03.599Z,101137.06
2022-08-14T09:27:33.408Z,101140.94
2022-08-14T09:30:01.335Z,101136.28
2022-08-14T09:32:59.125Z,101136.97
2022-08-14T09:35:24.507Z,101130.19
2022-08-14T09:38:04.505Z,101127.47
2022-08-14T09:40:54.808Z,101123.13
2022-08-14T09:43:43.415Z,101122.09
2022-08-14T09:46:10.251Z,101126.50
2022-08-14T09:48:37.839Z,101117.91
2022-08-14T09:54:19.135Z,101114.78
2022-08-14T09:56:45.615Z,101121.09
2022-08-14T09:59:15.294Z,101107.28
2022-08-14T10:01:43.369Z,101110.66
2022-08-14T10:04:35.700Z,101100.13
2022-08-14T10:07:05.250Z,101101.53
2022-08-14T10:09:34.677Z,101092.81
2022-08-14T10:12:04.332Z,101088.28
2022-08-14T10:14:36.081Z,101091.97
2022-08-14T10:17:06.124Z,101091.09
2022-08-14T10:19:35.678Z,101090.00
2022-08-14T10:23:13.151Z,101089.03
2022-08-14T10:24:57.321Z,101077.97
2022-08-14T10:27:26.638Z,101079.81
2022-08-14T10:29:54.484Z,101073.41
2022-08-14T10:32:28.061Z,101071.13
2022-08-14T10:35:13.551Z,101070.91
2022-08-14T10:37:51.807Z,101065.78
2022-08-14T10:40:37.961Z,101060.53
2022-08-14T10:43:16.397Z,101060.44
2022-08-14T10:46:04.130Z,101052.81
2022-08-14T10:48:44.824Z,101044.31
2022-08-14T10:51:13.853Z,101048.13
2022-08-14T10:53:40.646Z,101054.53
2022-08-14T10:56:21.941Z,101049.22
2022-08-14T10:59:02.320Z,101051.56
2022-08-14T11:01:32.971Z,101053.06
2022-08-14T11:04:19.428Z,101043.50
2022-08-14T11:06:52.084Z,101047.00
2022-08-14T11:09:18.390Z,101037.72
2022-08-14T11:11:47.635Z,101046.91
2022-08-14T11:14:22.863Z,101039.66
2022-08-14T11:16:53.844Z,101043.44
2022-08-14T11:19:25.093Z,101033.91
2022-08-14T11:21:55.426Z,101032.22
2022-08-14T11:24:55.470Z,101035.19
2022-08-14T11:27:14.190Z,101033.66
2022-08-14T11:29:41.974Z,101032.78
2022-08-14T11:32:09.430Z,101025.44
2022-08-14T11:34:37.361Z,101030.56
2022-08-14T11:37:18.751Z,101028.88
2022-08-14T11:39:53.447Z,101029.09
2022-08-14T11:43:07.845Z,101028.59
2022-08-14T11:45:11.498Z,101025.78
2022-08-14T11:48:12.563Z,101032.00
2022-08-14T11:50:36.085Z,101017.69
2022-08-14T11:53:04.815Z,101019.25
2022-08-14T11:55:35.031Z,101016.34
2022-08-14T11:58:05.674Z,101019.25
2022-08-14T12:00:38.199Z,101012.44
2022-08-14T12:03:06.726Z,101006.28
2022-08-14T12:05:39.773Z,101006.75
2022-08-14T12:08:12.044Z,100997.09
2022-08-14T12:10:43.537Z,100995.63
2022-08-14T12:13:11.436Z,100994.75
2022-08-14T12:15:38.196Z,100995.34
2022-08-14T12:18:19.337Z,101000.53
2022-08-14T12:20:52.895Z,100991.63
2022-08-14T12:23:27.681Z,100994.69
2022-08-14T12:26:38.866Z,100982.03
2022-08-14T12:28:59.409Z,100977.72
2022-08-14T12:31:26.629Z,100974.00
2022-08-14T12:33:59.934Z,100970.75
2022-08-14T12:36:33.078Z,100982.03
2022-08-14T12:39:05.198Z,100985.13
2022-08-14T12:41:37.227Z,100974.94
2022-08-14T12:44:05.235Z,100965.75
2022-08-14T12:46:37.786Z,100964.44
2022-08-14T12:49:10.810Z,100947.09
2022-08-14T12:51:37.736Z,100954.13
2022-08-14T12:54:18.599Z,100943.44
2022-08-14T12:57:09.183Z,100946.97
2022-08-14T12:59:42.740Z,100946.03
2022-08-14T13:02:20.312Z,100946.53
2022-08-14T13:04:50.365Z,100939.19
2022-08-14T13:07:17.078Z,100934.38
2022-08-14T13:09:44.904Z,100934.31
2022-08-14T13:12:32.333Z,100929.25
2022-08-14T13:15:00.759Z,100925.06
2022-08-14T13:17:28.366Z,100919.34
2022-08-14T13:19:56.665Z,100917.22
2022-08-14T13:22:32.159Z,100908.00
2022-08-14T13:25:00.052Z,100897.16
2022-08-14T13:27:27.423Z,100883.72
2022-08-14T13:29:56.835Z,100889.56
2022-08-14T13:32:25.119Z,100884.41
2022-08-14T13:34:52.543Z,100888.28
2022-08-14T13:37:19.305Z,100883.88
2022-08-14T13:39:56.341Z,100874.84
2022-08-14T13:42:23.620Z,100874.69
2022-08-14T13:44:54.777Z,100873.16
2022-08-14T13:47:29.524Z,100871.63
2022-08-14T13:50:00.428Z,100870.94
2022-08-14T13:52:51.865Z,100866.22
2022-08-14T13:55:17.995Z,100871.44
2022-08-14T13:57:49.319Z,100864.88
2022-08-14T14:00:17.844Z,100869.75
2022-08-14T14:02:45.946Z,100867.66
2022-08-14T14:05:18.709Z,100870.28
2022-08-14T14:07:50.688Z,100866.22
2022-08-14T14:10:28.305Z,100860.28
2022-08-14T14:12:56.200Z,100854.19
2022-08-14T14:15:28.709Z,100848.75
2022-08-14T14:18:29.910Z,100844.78
2022-08-14T14:20:59.647Z,100835.00
2022-08-14T14:23:27.172Z,100835.34
2022-08-14T14:25:59.724Z,100832.50
2022-08-14T14:28:31.190Z,100838.72
2022-08-14T14:31:01.210Z,100828.75
2022-08-14T14:33:49.526Z,100836.06
2022-08-14T14:36:20.960Z,100838.19
2022-08-14T14:38:51.780Z,100826.84
2022-08-14T14:41:21.043Z,100833.53
2022-08-14T14:43:51.715Z,100826.25
2022-08-14T14:46:19.138Z,100827.22
2022-08-14T14:48:53.827Z,100823.31
2022-08-14T14:51:21.793Z,100815.63
2022-08-14T14:53:48.325Z,100818.34
2022-08-14T14:56:46.881Z,100818.19
2022-08-14T14:59:01.026Z,100816.84
2022-08-14T15:01:27.571Z,100814.50
2022-08-14T15:03:54.338Z,100820.69
2022-08-14T15:06:21.606Z,100807.06
2022-08-14T15:08:59.823Z,100811.34
2022-08-14T15:11:30.121Z,100814.53
2022-08-14T15:13:57.044Z,100800.19
2022-08-14T15:16:23.783Z,100809.53
2022-08-14T15:18:51.235Z,100809.97
2022-08-14T15:21:19.325Z,100806.84
2022-08-14T15:23:47.965Z,100813.50
2022-08-14T15:26:24.503Z,100803.13
2022-08-14T15:29:02.150Z,100798.19
2022-08-14T15:31:31.249Z,100796.31
2022-08-14T15:34:44.143Z,100790.34
2022-08-14T15:37:01.985Z,100787.28
2022-08-14T15:39:34.034Z,100778.34
2022-08-14T15:42:04.213Z,100778.03
2022-08-14T15:44:44.698Z,100777.97
2022-08-14T15:47:28.980Z,100774.50
2022-08-14T15:49:59.552Z,100775.84
2022-08-14T15:52:32.880Z,100769.84
2022-08-14T15:55:05.971Z,100763.81
2022-08-14T15:57:33.312Z,100765.09
2022-08-14T16:00:40.021Z,100772.03
2022-08-14T16:03:08.674Z,100759.34
2022-08-14T16:05:38.475Z,100758.28
2022-08-14T16:08:28.853Z,100761.97
2022-08-14T16:10:55.001Z,100756.41
2022-08-14T16:13:41.952Z,100752.84
2022-08-14T16:16:34.387Z,100760.31
2022-08-14T16:18:58.098Z,100764.53
2022-08-14T16:21:32.037Z,100762.16
2022-08-14T16:23:59.726Z,100754.47
2022-08-14T16:26:29.251Z,100746.97
2022-08-14T16:29:05.298Z,100735.59
2022-08-14T16:31:36.150Z,100741.69
2022-08-14T16:34:44.598Z,100736.56
2022-08-14T16:36:51.161Z,100734.59
2022-08-14T16:39:17.735Z,100731.22
2022-08-14T16:41:45.611Z,100729.59
2022-08-14T16:44:21.899Z,100733.91
2022-08-14T16:47:01.881Z,100737.69
2022-08-14T16:50:02.764Z,100736.47
2022-08-14T16:52:25.471Z,100734.19
2022-08-14T16:55:04.088Z,100742.22
2022-08-14T16:57:31.680Z,100746.00
2022-08-14T16:59:59.568Z,100744.38
2022-08-14T17:02:34.325Z,100748.59
2022-08-14T17:05:16.495Z,100735.16
2022-08-14T17:08:02.767Z,100729.94
2022-08-14T17:10:34.948Z,100740.22
2022-08-14T17:13:17.761Z,100735.78
2022-08-14T17:16:03.579Z,100739.34
2022-08-14T17:18:41.118Z,100736.28
2022-08-14T17:21:21.645Z,100731.78
2022-08-14T17:24:57.594Z,100732.78
2022-08-14T17:26:55.579Z,100732.97
2022-08-14T17:29:31.314Z,100726.91
2022-08-14T17:32:06.343Z,100721.50
2022-08-14T17:34:53.228Z,100727.94
2022-08-14T17:37:24.195Z,100724.47
2022-08-14T17:40:15.263Z,100719.28
2022-08-14T17:42:55.413Z,100722.34
2022-08-14T17:45:41.541Z,100722.78
2022-08-14T17:49:13.969Z,100713.50
2022-08-14T17:51:17.034Z,100711.69
2022-08-14T17:53:53.484Z,100710.06
2022-08-14T17:56:20.525Z,100706.00
2022-08-14T17:58:47.626Z,100711.81
2022-08-14T18:01:14.145Z,100707.88
2022-08-14T18:03:50.749Z,100704.50
2022-08-14T18:06:39.103Z,100707.69
2022-08-14T18:09:24.703Z,100701.97
2022-08-14T18:11:55.392Z,100690.97
2022-08-14T18:14:32.124Z,100703.19
2022-08-14T18:17:00.806Z,100709.19
2022-08-14T18:19:28.891Z,100705.91
2022-08-14T18:21:57.798Z,100703.88
2022-08-14T18:24:29.335Z,100707.03
2022-08-14T18:27:02.265Z,100711.25
2022-08-14T18:29:39.738Z,100703.63
2022-08-14T18:32:27.219Z,100703.53
2022-08-14T18:35:20.079Z,100697.13
2022-08-14T18:37:56.071Z,100691.59
2022-08-14T18:40:35.137Z,100704.56
2022-08-14T18:43:04.538Z,100705.78
2022-08-14T18:45:41.436Z,100708.06
2022-08-14T18:48:33.254Z,100709.13
2022-08-14T18:51:11.121Z,100698.84
2022-08-14T18:54:06.177Z,100701.16
2022-08-14T18:56:55.727Z,100706.38
2022-08-14T18:59:29.645Z,100709.66
2022-08-14T19:02:21.167Z,100715.63
2022-08-14T19:04:47.631Z,100719.47
2022-08-14T19:07:16.255Z,100716.22
2022-08-14T19:09:52.097Z,100713.78
2022-08-14T19:12:44.377Z,100718.47
2022-08-14T19:15:19.190Z,100715.22
2022-08-14T19:18:14.997Z,100709.03
2022-08-14T19:20:45.425Z,100713.81
2022-08-14T19:23:15.884Z,100713.03
2022-08-14T19:25:55.319Z,100714.22
2022-08-14T19:28:31.720Z,100718.91
2022-08-14T19:31:17.481Z,100720.94
2022-08-14T19:33:48.064Z,100713.19
2022-08-14T19:36:29.275Z,100716.03
2022-08-14T19:39:01.994Z,100715.41
2022-08-14T19:41:34.809Z,100723.63
2022-08-14T19:44:12.169Z,100722.06
2022-08-14T19:47:00.375Z,100720.00
2022-08-14T19:52:23.693Z,100731.53
2022-08-14T19:54:51.409Z,100719.34
2022-08-14T19:57:19.244Z,100724.22
2022-08-14T19:59:57.716Z,100727.47
2022-08-14T20:02:29.992Z,100722.09
2022-08-14T20:05:03.603Z,100739.22
2022-08-14T20:07:59.420Z,100730.50
2022-08-14T20:11:04.238Z,100731.41
2022-08-14T20:13:13.865Z,100723.53
2022-08-14T20:15:47.137Z,100733.69
2022-08-14T20:18:27.157Z,100737.56
2022-08-14T20:21:05.166Z,100731.69
2022-08-14T20:23:38.428Z,100733.84
2022-08-14T20:26:31.871Z,100736.97
2022-08-14T20:29:04.861Z,100732.00
2022-08-14T20:31:36.870Z,100728.81
2022-08-14T20:34:24.337Z,100728.22
2022-08-14T20:37:22.025Z,100726.16
2022-08-14T20:39:54.626Z,100733.69
2022-08-14T20:42:43.756Z,100733.16
2022-08-14T20:45:19.959Z,100742.47
2022-08-14T20:48:01.112Z,100745.44
2022-08-14T20:50:29.547Z,100739.38
2022-08-14T20:53:00.127Z,100731.56
2022-08-14T20:55:30.754Z,100729.28
2022-08-14T20:57:59.307Z,100724.16
2022-08-14T21:00:33.249Z,100726.13
2022-08-14T21:03:20.520Z,100722.66
2022-08-14T21:05:46.850Z,100713.78
2022-08-14T21:08:26.039Z,100716.63
2022-08-14T21:10:54.933Z,100718.59
2022-08-14T21:14:09.153Z,100715.13
2022-08-14T21:16:25.920Z,100710.66
2022-08-14T21:18:58.230Z,100703.81
2022-08-14T21:21:41.099Z,100704.81
2022-08-14T21:24:09.940Z,100704.13
2022-08-14T21:27:02.119Z,100713.25
2022-08-14T21:29:36.370Z,100700.94
2022-08-14T21:32:04.011Z,100701.19
2022-08-14T21:34:55.241Z,100696.91
2022-08-14T21:37:22.093Z,100696.13
2022-08-14T21:39:57.003Z,100695.34
2022-08-14T21:42:24.623Z,100692.78
2022-08-14T21:44:55.143Z,100693.84
2022-08-14T21:47:23.621Z,100696.63
2022-08-14T21:49:50.830Z,100686.97
2022-08-14T21:52:49.110Z,100682.75
2022-08-14T21:55:09.543Z,100685.66
2022-08-14T21:57:56.518Z,100684.94
2022-08-14T22:00:34.767Z,100687.78
2022-08-14T22:03:02.777Z,100681.69
2022-08-14T22:05:29.639Z,100683.66
2022-08-14T22:07:57.487Z,100678.44
2022-08-14T22:10:24.311Z,100674.91
2022-08-14T22:13:00.474Z,100674.22
2022-08-14T22:15:27.651Z,100672.59
2022-08-14T22:17:54.794Z,100670.94
2022-08-14T22:20:21.925Z,100671.91
2022-08-14T22:22:49.099Z,100669.34
2022-08-14T22:25:22.596Z,100663.25
2022-08-14T22:28:00.230Z,100654.56
2022-08-14T22:30:26.740Z,100658.28
2022-08-14T22:32:57.768Z,100652.16
2022-08-14T22:35:24.586Z,100659.50
2022-08-14T22:38:36.549Z,100646.31
2022-08-14T22:41:02.219Z,100638.44
2022-08-14T22:43:26.595Z,100635.91
2022-08-14T22:45:55.536Z,100643.19
2022-08-14T22:48:22.528Z,100640.72
2022-08-14T22:50:53.731Z,100640.88
2022-08-14T22:53:20.888Z,100639.19
2022-08-14T22:55:48.099Z,100636.63
2022-08-14T22:58:18.635Z,100629.63
2022-08-14T23:00:45.640Z,100619.97
2022-08-14T23:03:17.522Z,100629.88
2022-08-14T23:05:52.661Z,100620.22
2022-08-14T23:09:00.463Z,100628.34
2022-08-14T23:11:06.096Z,100626.59
2022-08-14T23:13:33.022Z,100623.09
2022-08-14T23:15:59.998Z,100615.16
2022-08-14T23:18:29.717Z,100617.03
2022-08-14T23:20:56.515Z,100614.47
2022-08-14T23:23:23.368Z,100611.97
2022-08-14T23:26:00.101Z,100618.22
2022-08-14T23:28:58.085Z,100608.56
2022-08-14T23:31:34.317Z,100607.72
2022-08-14T23:34:02.123Z,100603.31
2022-08-14T23:36:37.520Z,100599.66
2022-08-14T23:39:19.857Z,100600.56
2022-08-14T23:41:53.171Z,100601.44
2022-08-14T23:44:24.157Z,100597.97
2022-08-14T23:46:52.707Z,100580.28
2022-08-14T23:49:23.518Z,100579.56
2022-08-14T23:52:51.232Z,100587.56
2022-08-14T23:54:48.277Z,100577.91
2022-08-14T23:57:16.275Z,100570.91
2022-08-14T23:59:54.321Z,100565.84
